Pagina principale
METAR-TAF:

METAR-TAF

Aeroporti :

Aeroporto di Zara-Zemonico

Zara, Croazia

latitudine: 44-06N, longitudine: 015-21E, altezza: 82 m

Osservazione

Il bollettino è stato emesso 24 minuti fa, alle 23:00 UTC
Vento 2 kt da direzioni variabili
Temperature 22°C
Umidità 78%
Pressione 1018 hPa
Visibilità 10 km o più
nessuna nube inferiore a 1500 m e nessun cumulonembo

METAR: LDZD 192300Z VRB02KT CAVOK 22/18 Q1018 NOSIG

Ora: 01:24 (23:24 UTC)

Previsione

Il bollettino è stato emesso 5 ore e 59 minuti fa, alle 17:25 UTC
Previsione valida dal 19 alle 18 UTC al 20 alle 18 UTC
Vento 2 kt da direzioni variabili
Visibilità 10 km o più
nessuna nube inferiore a 1500 m e nessun cumulonembo
Evoluzione graduale
dal 20 alle 07 UTC al 20 alle 09 UTC
Vento 8 kt da nord-ovest
Temporaneamente
dal 20 alle 11 UTC al 20 alle 16 UTC
Vento 12 kt da nord-ovest

TAF: LDZD 191725Z 1918/2018 VRB02KT CAVOK TX35/2013Z TN18/2003Z BECMG 2007/2009 31008KT TEMPO 2011/2016 31012KT

Osservazioni e previsioni meteorologiche di più di 4000 aeroporti (messaggi METAR e TAF).

Le stazioni disponibili sono rappresentate dai dischi gialli e rossi sulla carta.

Puntare il mouse per vedere il nome della stazione.

Clicca sopra per visualizzare le osservazioni e previsioni meteorologiche.

Per cambiare la mappa : fare clic sui pulsanti verdi con una croce nera per ingrandire, il pulsante verde con un trattino per diminuire, o sulla freccia verde per le mappe adiacenti.


METAR-TAF: